FACTFMMI

Guest
Details From FACT - Cape Town International
To FMMI - Ivato
Flight Number -
Tags Generated
Created
Modified
Stats Distance 1,791 nm / 3,317 km
Max Altitude 0 ft / 0 m
Waypoints 5
Social Downloads 0
Likes 0
Share VATSIM

Download

Looking for another format? Having issues loading an existing format? Contact us
Advertisement - Login to hide

Notes

Generated

Route

FACT BDV GWN IA FMMI

ID Type Via Altitude Latitude Longitude Leg Dist Tot Dist Heading (true) Name
O FACT APT - 0 ft / 0 m -33.96149˚ 18.59772˚ - 0 nm - -
BDV VOR - 0 ft / 0 m -30.96498˚ 26.32274˚ 430 nm 430 nm 67° / 63° BURGERSDORP VOR
GWN NDB - 0 ft / 0 m -29.10539˚ 30.60343˚ 248 nm 679 nm 64° / 62° GREYTOWN NDB
IA NDB - 0 ft / 0 m -18.79336˚ 47.45492˚ 1110 nm 1790 nm 60° / 53° ANTANANARIVO IVATO NDB
O FMMI APT - 0 ft / 0 m -18.79479˚ 47.46427˚ 0 nm 1791 nm 99° / 99° -

Altitude Profile

Advertisement - Login to hide

Weather


0- 5 10 15 20 25 30 35+ Temperature / ° C

Clouds and Precipitation
Forecast for 2017-12-11 18:00 UTC. Updated 2 hours ago

Ground ~20,000 ft ~40,000 ft Winds

FACT

Details ICAO FACT (CPT)
Name Cape Town International
Region South Africa
Timezone Africa/Johannesburg (UTC+2.0)
Stats Elevation 151 ft / 46 m (AMSL)
Location -33.970501° 18.604405°
Runways 2
Magnetic Variation 25.342° W

METAR

FACT 111900Z 18020KT 9999 FEW035 18/11 Q1014 NOSIG

Decode

TAF

Not found

Departure Runways

ID Width Length Bearing (true) Bearing (mag) Surface Threshold Offset Overrun Length
01 200 ft / 61 m 10,527 ft / 3,209 m 345.27° 10.61° Asphalt 0 ft / 0 m 195 ft / 59 m
16 151 ft / 46 m 5,586 ft / 1,703 m 135.35° 160.69° Asphalt 300 ft / 91 m 0 ft / 0 m
19 200 ft / 61 m 10,527 ft / 3,209 m 165.27° 190.61° Asphalt 0 ft / 0 m 195 ft / 59 m
34 151 ft / 46 m 5,586 ft / 1,703 m 315.35° 340.69° Asphalt 300 ft / 91 m 0 ft / 0 m

FMMI

Details ICAO FMMI (TNR)
Name IVATO
Region Comoros, Mayotte, Réunion and Madagascar
Timezone Indian/Antananarivo (UTC+3.0)
Stats Elevation 4,198 ft / 1,280 m (AMSL)
Location -18.796950° 47.478806°
Runways 1
Magnetic Variation 15.160° W

METAR

FMMI 111900Z 01002KT 9999 TS FEW017 20/18 Q1021 NOSIG

Decode

TAF

TAF FMMI TAF FMCH 111700Z 1118/1224 32003KT 9999 FEW020 SCT040 TEMPO 1208/1214 31013KT FEW020CB SCT030

Decode

Destination Runways

ID Width Length Bearing (true) Bearing (mag) Surface Threshold Offset Overrun Length
11 148 ft / 45 m 10,167 ft / 3,099 m 98.92° 114.08° Asphalt 0 ft / 0 m 90 ft / 27 m
29 148 ft / 45 m 10,167 ft / 3,099 m 278.91° 294.07° Asphalt 0 ft / 0 m 90 ft / 27 m

Approach Navaids

Runway Type Ident Frequency Range Bearing (true) Bearing (mag) Slope Elevation
11 Localiser IO 109.50 MHz 18 nm / 33 km 98.89° 114.05° - 4,125 ft / 1,257 m (AMSL)
11 Glidescope IO 109.50 MHz 10 nm / 19 km 98.91° 114.07° 3.00° 4,198 ft / 1,280 m (AMSL)

Popular Alternatives